sensor_id;sensor_type;location;lat;lon;timestamp;pressure;altitude;pressure_sealevel;temperature;humidity
10716;BME280;5409;42.620;23.316;2022-08-03T00:00:57;92355.91;;;18.21;100.00
10716;BME280;5409;42.620;23.316;2022-08-03T00:03:24;92356.66;;;18.21;100.00
10716;BME280;5409;42.620;23.316;2022-08-03T00:05:51;92358.63;;;18.15;100.00
10716;BME280;5409;42.620;23.316;2022-08-03T00:08:19;92357.13;;;18.39;100.00
10716;BME280;5409;42.620;23.316;2022-08-03T00:10:46;92356.16;;;18.42;100.00
10716;BME280;5409;42.620;23.316;2022-08-03T00:13:13;92356.88;;;18.38;100.00
10716;BME280;5409;42.620;23.316;2022-08-03T00:15:40;92358.59;;;18.35;100.00
10716;BME280;5409;42.620;23.316;2022-08-03T00:18:07;92356.53;;;18.30;100.00
10716;BME280;5409;42.620;23.316;2022-08-03T00:20:34;92348.38;;;18.21;100.00
10716;BME280;5409;42.620;23.316;2022-08-03T00:23:01;92353.38;;;18.17;100.00
10716;BME280;5409;42.620;23.316;2022-08-03T00:25:29;92336.00;;;18.11;100.00
10716;BME280;5409;42.620;23.316;2022-08-03T00:27:56;92339.50;;;18.12;100.00
10716;BME280;5409;42.620;23.316;2022-08-03T00:30:22;92350.75;;;18.08;100.00
10716;BME280;5409;42.620;23.316;2022-08-03T00:32:49;92348.28;;;18.10;100.00
10716;BME280;5409;42.620;23.316;2022-08-03T00:35:16;92351.31;;;18.12;100.00
10716;BME280;5409;42.620;23.316;2022-08-03T00:37:43;92353.31;;;18.12;100.00
10716;BME280;5409;42.620;23.316;2022-08-03T00:40:10;92346.75;;;18.09;100.00
10716;BME280;5409;42.620;23.316;2022-08-03T00:42:47;92342.41;;;18.03;100.00
10716;BME280;5409;42.620;23.316;2022-08-03T00:45:16;92339.66;;;18.03;100.00
10716;BME280;5409;42.620;23.316;2022-08-03T00:47:43;92344.16;;;18.00;100.00
10716;BME280;5409;42.620;23.316;2022-08-03T00:50:10;92336.38;;;17.99;100.00
10716;BME280;5409;42.620;23.316;2022-08-03T00:52:37;92348.66;;;17.98;100.00
10716;BME280;5409;42.620;23.316;2022-08-03T00:55:04;92339.81;;;17.94;100.00
10716;BME280;5409;42.620;23.316;2022-08-03T00:57:32;92341.53;;;17.91;100.00
10716;BME280;5409;42.620;23.316;2022-08-03T01:00:00;92338.34;;;17.98;100.00
10716;BME280;5409;42.620;23.316;2022-08-03T01:02:27;92334.06;;;17.97;100.00
10716;BME280;5409;42.620;23.316;2022-08-03T01:04:54;92335.59;;;17.98;100.00
10716;BME280;5409;42.620;23.316;2022-08-03T01:07:29;92330.63;;;18.02;100.00
10716;BME280;5409;42.620;23.316;2022-08-03T01:10:05;92336.47;;;18.10;100.00
10716;BME280;5409;42.620;23.316;2022-08-03T01:12:37;92331.19;;;18.06;100.00
10716;BME280;5409;42.620;23.316;2022-08-03T01:15:12;92327.59;;;18.00;100.00
10716;BME280;5409;42.620;23.316;2022-08-03T01:17:47;92324.00;;;17.94;100.00
10716;BME280;5409;42.620;23.316;2022-08-03T01:20:15;92327.00;;;17.91;100.00
10716;BME280;5409;42.620;23.316;2022-08-03T01:23:02;92327.19;;;17.87;100.00
10716;BME280;5409;42.620;23.316;2022-08-03T01:25:41;92329.19;;;17.87;100.00
10716;BME280;5409;42.620;23.316;2022-08-03T01:28:36;92322.44;;;17.88;100.00
10716;BME280;5409;42.620;23.316;2022-08-03T01:31:07;92322.72;;;17.90;100.00
10716;BME280;5409;42.620;23.316;2022-08-03T01:33:40;92316.44;;;17.89;100.00
10716;BME280;5409;42.620;23.316;2022-08-03T01:36:11;92318.44;;;17.89;100.00
10716;BME280;5409;42.620;23.316;2022-08-03T01:38:42;92320.66;;;17.85;100.00
10716;BME280;5409;42.620;23.316;2022-08-03T01:41:11;92322.91;;;17.86;100.00
10716;BME280;5409;42.620;23.316;2022-08-03T01:43:41;92334.72;;;17.87;100.00
10716;BME280;5409;42.620;23.316;2022-08-03T01:46:11;92327.91;;;17.82;100.00
10716;BME280;5409;42.620;23.316;2022-08-03T01:48:41;92322.84;;;17.81;100.00
10716;BME280;5409;42.620;23.316;2022-08-03T01:51:09;92326.81;;;17.74;100.00
10716;BME280;5409;42.620;23.316;2022-08-03T01:53:38;92327.28;;;17.73;100.00
10716;BME280;5409;42.620;23.316;2022-08-03T01:56:08;92338.75;;;17.66;100.00
10716;BME280;5409;42.620;23.316;2022-08-03T01:58:36;92330.03;;;17.53;100.00
10716;BME280;5409;42.620;23.316;2022-08-03T02:01:04;92331.63;;;17.59;100.00
10716;BME280;5409;42.620;23.316;2022-08-03T02:03:36;92332.94;;;17.64;100.00
10716;BME280;5409;42.620;23.316;2022-08-03T02:06:04;92331.34;;;17.57;100.00
10716;BME280;5409;42.620;23.316;2022-08-03T02:08:32;92331.22;;;17.46;100.00
10716;BME280;5409;42.620;23.316;2022-08-03T02:11:01;92333.47;;;17.48;100.00
10716;BME280;5409;42.620;23.316;2022-08-03T02:13:28;92330.78;;;17.53;100.00
10716;BME280;5409;42.620;23.316;2022-08-03T02:15:56;92336.03;;;17.51;100.00
10716;BME280;5409;42.620;23.316;2022-08-03T02:18:24;92331.00;;;17.50;100.00
10716;BME280;5409;42.620;23.316;2022-08-03T02:20:53;92330.16;;;17.44;100.00
10716;BME280;5409;42.620;23.316;2022-08-03T02:23:21;92328.38;;;17.41;100.00
10716;BME280;5409;42.620;23.316;2022-08-03T02:25:53;92318.72;;;17.31;100.00
10716;BME280;5409;42.620;23.316;2022-08-03T02:28:27;92322.44;;;17.28;100.00
10716;BME280;5409;42.620;23.316;2022-08-03T02:30:57;92321.88;;;17.24;100.00
10716;BME280;5409;42.620;23.316;2022-08-03T02:33:32;92308.84;;;17.24;100.00
10716;BME280;5409;42.620;23.316;2022-08-03T02:36:02;92320.53;;;17.19;100.00
10716;BME280;5409;42.620;23.316;2022-08-03T02:38:32;92310.56;;;17.22;100.00
10716;BME280;5409;42.620;23.316;2022-08-03T02:41:04;92319.28;;;17.20;100.00
10716;BME280;5409;42.620;23.316;2022-08-03T02:43:34;92324.06;;;17.20;100.00
10716;BME280;5409;42.620;23.316;2022-08-03T02:46:01;92318.28;;;17.18;100.00
10716;BME280;5409;42.620;23.316;2022-08-03T02:48:29;92318.28;;;17.18;100.00
10716;BME280;5409;42.620;23.316;2022-08-03T02:51:00;92325.69;;;17.12;100.00
10716;BME280;5409;42.620;23.316;2022-08-03T02:53:30;92316.13;;;17.08;100.00
10716;BME280;5409;42.620;23.316;2022-08-03T02:55:58;92324.66;;;17.10;100.00
10716;BME280;5409;42.620;23.316;2022-08-03T02:58:27;92320.47;;;17.14;100.00
10716;BME280;5409;42.620;23.316;2022-08-03T03:00:56;92323.97;;;17.14;100.00
10716;BME280;5409;42.620;23.316;2022-08-03T03:03:24;92323.28;;;17.19;100.00
10716;BME280;5409;42.620;23.316;2022-08-03T03:05:51;92330.41;;;17.26;100.00
10716;BME280;5409;42.620;23.316;2022-08-03T03:08:20;92331.44;;;17.28;100.00
10716;BME280;5409;42.620;23.316;2022-08-03T03:10:48;92329.84;;;17.22;100.00
10716;BME280;5409;42.620;23.316;2022-08-03T03:13:16;92320.06;;;17.21;100.00
10716;BME280;5409;42.620;23.316;2022-08-03T03:15:46;92329.19;;;17.13;100.00
10716;BME280;5409;42.620;23.316;2022-08-03T03:18:13;92332.22;;;17.14;100.00
10716;BME280;5409;42.620;23.316;2022-08-03T03:20:42;92342.50;;;17.14;100.00
10716;BME280;5409;42.620;23.316;2022-08-03T03:23:10;92354.38;;;17.20;100.00
10716;BME280;5409;42.620;23.316;2022-08-03T03:25:38;92352.16;;;17.24;100.00
10716;BME280;5409;42.620;23.316;2022-08-03T03:28:09;92356.44;;;17.25;100.00
10716;BME280;5409;42.620;23.316;2022-08-03T03:30:36;92358.91;;;17.23;100.00
10716;BME280;5409;42.620;23.316;2022-08-03T03:33:03;92358.91;;;17.23;100.00
10716;BME280;5409;42.620;23.316;2022-08-03T03:35:30;92354.81;;;17.18;100.00
10716;BME280;5409;42.620;23.316;2022-08-03T03:37:57;92360.56;;;17.15;100.00
10716;BME280;5409;42.620;23.316;2022-08-03T03:40:24;92350.59;;;17.03;100.00
10716;BME280;5409;42.620;23.316;2022-08-03T03:42:51;92354.31;;;17.00;100.00
10716;BME280;5409;42.620;23.316;2022-08-03T03:45:20;92354.88;;;17.04;100.00
10716;BME280;5409;42.620;23.316;2022-08-03T03:47:48;92356.38;;;17.05;100.00
10716;BME280;5409;42.620;23.316;2022-08-03T03:50:17;92359.25;;;16.96;100.00
10716;BME280;5409;42.620;23.316;2022-08-03T03:52:44;92356.63;;;16.87;100.00
10716;BME280;5409;42.620;23.316;2022-08-03T03:55:14;92352.63;;;16.88;100.00
10716;BME280;5409;42.620;23.316;2022-08-03T03:57:41;92357.19;;;16.91;100.00
10716;BME280;5409;42.620;23.316;2022-08-03T04:00:09;92360.69;;;16.92;100.00
10716;BME280;5409;42.620;23.316;2022-08-03T04:02:37;92356.97;;;16.95;100.00
10716;BME280;5409;42.620;23.316;2022-08-03T04:05:05;92359.06;;;17.00;100.00
10716;BME280;5409;42.620;23.316;2022-08-03T04:07:56;92365.84;;;17.18;100.00
10716;BME280;5409;42.620;23.316;2022-08-03T04:10:42;92362.25;;;17.27;100.00
10716;BME280;5409;42.620;23.316;2022-08-03T04:13:29;92356.59;;;17.36;100.00
10716;BME280;5409;42.620;23.316;2022-08-03T04:15:58;92370.94;;;17.40;100.00
10716;BME280;5409;42.620;23.316;2022-08-03T04:18:28;92354.28;;;17.49;100.00
10716;BME280;5409;42.620;23.316;2022-08-03T04:20:58;92362.16;;;17.56;100.00
10716;BME280;5409;42.620;23.316;2022-08-03T04:23:30;92367.53;;;17.65;100.00
10716;BME280;5409;42.620;23.316;2022-08-03T04:26:00;92367.13;;;17.72;100.00
10716;BME280;5409;42.620;23.316;2022-08-03T04:28:28;92370.25;;;17.79;100.00
10716;BME280;5409;42.620;23.316;2022-08-03T04:30:56;92369.75;;;17.81;100.00
10716;BME280;5409;42.620;23.316;2022-08-03T04:33:26;92370.44;;;17.96;100.00
10716;BME280;5409;42.620;23.316;2022-08-03T04:35:57;92365.03;;;18.07;100.00
10716;BME280;5409;42.620;23.316;2022-08-03T04:38:24;92369.94;;;18.17;100.00
10716;BME280;5409;42.620;23.316;2022-08-03T04:40:53;92365.97;;;18.24;100.00
10716;BME280;5409;42.620;23.316;2022-08-03T04:43:21;92365.59;;;18.31;100.00
10716;BME280;5409;42.620;23.316;2022-08-03T04:45:50;92368.41;;;18.36;100.00
10716;BME280;5409;42.620;23.316;2022-08-03T04:48:18;92372.72;;;18.42;100.00
10716;BME280;5409;42.620;23.316;2022-08-03T04:50:47;92376.31;;;18.48;100.00
10716;BME280;5409;42.620;23.316;2022-08-03T04:53:15;92376.41;;;18.59;100.00
10716;BME280;5409;42.620;23.316;2022-08-03T04:55:42;92379.84;;;18.74;100.00
10716;BME280;5409;42.620;23.316;2022-08-03T04:58:09;92377.84;;;18.80;100.00
10716;BME280;5409;42.620;23.316;2022-08-03T05:00:37;92387.22;;;18.88;100.00
10716;BME280;5409;42.620;23.316;2022-08-03T05:03:03;92385.31;;;19.00;100.00
10716;BME280;5409;42.620;23.316;2022-08-03T05:05:30;92392.94;;;19.10;100.00
10716;BME280;5409;42.620;23.316;2022-08-03T05:07:58;92389.75;;;19.17;100.00
10716;BME280;5409;42.620;23.316;2022-08-03T05:10:25;92394.09;;;19.24;100.00
10716;BME280;5409;42.620;23.316;2022-08-03T05:12:52;92399.91;;;19.31;100.00
10716;BME280;5409;42.620;23.316;2022-08-03T05:15:19;92404.72;;;19.36;100.00
10716;BME280;5409;42.620;23.316;2022-08-03T05:17:46;92404.50;;;19.40;100.00
10716;BME280;5409;42.620;23.316;2022-08-03T05:20:13;92406.06;;;19.46;100.00
10716;BME280;5409;42.620;23.316;2022-08-03T05:22:40;92414.16;;;19.55;100.00
10716;BME280;5409;42.620;23.316;2022-08-03T05:25:08;92412.41;;;19.57;100.00
10716;BME280;5409;42.620;23.316;2022-08-03T05:27:35;92411.47;;;19.66;100.00
10716;BME280;5409;42.620;23.316;2022-08-03T05:30:02;92411.47;;;19.71;100.00
10716;BME280;5409;42.620;23.316;2022-08-03T05:32:29;92415.28;;;19.74;100.00
10716;BME280;5409;42.620;23.316;2022-08-03T05:34:55;92416.81;;;19.80;100.00
10716;BME280;5409;42.620;23.316;2022-08-03T05:37:22;92426.22;;;19.94;100.00
10716;BME280;5409;42.620;23.316;2022-08-03T05:39:49;92429.06;;;19.99;100.00
10716;BME280;5409;42.620;23.316;2022-08-03T05:42:17;92427.28;;;20.02;100.00
10716;BME280;5409;42.620;23.316;2022-08-03T05:44:43;92430.13;;;20.13;100.00
10716;BME280;5409;42.620;23.316;2022-08-03T05:47:10;92428.63;;;20.23;100.00
10716;BME280;5409;42.620;23.316;2022-08-03T05:49:37;92424.66;;;20.35;100.00
10716;BME280;5409;42.620;23.316;2022-08-03T05:52:04;92431.25;;;20.43;100.00
10716;BME280;5409;42.620;23.316;2022-08-03T05:54:30;92436.78;;;20.43;100.00
10716;BME280;5409;42.620;23.316;2022-08-03T05:56:57;92434.81;;;20.49;100.00
10716;BME280;5409;42.620;23.316;2022-08-03T05:59:25;92439.13;;;20.66;100.00
10716;BME280;5409;42.620;23.316;2022-08-03T06:01:52;92443.94;;;20.76;100.00
10716;BME280;5409;42.620;23.316;2022-08-03T06:04:19;92443.25;;;20.87;100.00
10716;BME280;5409;42.620;23.316;2022-08-03T06:06:45;92442.25;;;20.95;100.00
10716;BME280;5409;42.620;23.316;2022-08-03T06:09:15;92449.31;;;20.96;100.00
10716;BME280;5409;42.620;23.316;2022-08-03T06:11:41;92445.03;;;21.06;100.00
10716;BME280;5409;42.620;23.316;2022-08-03T06:14:08;92447.06;;;21.11;100.00
10716;BME280;5409;42.620;23.316;2022-08-03T06:16:36;92453.13;;;21.32;100.00
10716;BME280;5409;42.620;23.316;2022-08-03T06:19:03;92447.34;;;21.46;100.00
10716;BME280;5409;42.620;23.316;2022-08-03T06:21:29;92450.88;;;21.58;100.00
10716;BME280;5409;42.620;23.316;2022-08-03T06:23:56;92445.81;;;21.51;99.78
10716;BME280;5409;42.620;23.316;2022-08-03T06:26:24;92449.16;;;21.60;99.41
10716;BME280;5409;42.620;23.316;2022-08-03T06:28:51;92442.56;;;21.74;99.48
10716;BME280;5409;42.620;23.316;2022-08-03T06:31:19;92452.41;;;21.86;100.00
10716;BME280;5409;42.620;23.316;2022-08-03T06:33:48;92453.13;;;21.97;100.00
10716;BME280;5409;42.620;23.316;2022-08-03T06:36:15;92454.38;;;21.96;99.43
10716;BME280;5409;42.620;23.316;2022-08-03T06:38:42;92457.41;;;21.98;97.93
10716;BME280;5409;42.620;23.316;2022-08-03T06:41:08;92458.91;;;22.05;96.48
10716;BME280;5409;42.620;23.316;2022-08-03T06:43:35;92455.13;;;22.02;95.34
10716;BME280;5409;42.620;23.316;2022-08-03T06:46:02;92456.19;;;21.94;97.03
10716;BME280;5409;42.620;23.316;2022-08-03T06:48:30;92447.31;;;22.06;96.72
10716;BME280;5409;42.620;23.316;2022-08-03T06:50:58;92439.22;;;22.14;95.67
10716;BME280;5409;42.620;23.316;2022-08-03T06:53:25;92453.09;;;22.14;94.24
10716;BME280;5409;42.620;23.316;2022-08-03T06:55:51;92446.00;;;22.24;94.24
10716;BME280;5409;42.620;23.316;2022-08-03T06:58:18;92450.00;;;22.50;98.25
10716;BME280;5409;42.620;23.316;2022-08-03T07:00:45;92451.75;;;22.53;92.38
10716;BME280;5409;42.620;23.316;2022-08-03T07:03:11;92447.84;;;22.78;91.29
10716;BME280;5409;42.620;23.316;2022-08-03T07:05:40;92444.72;;;22.93;90.60
10716;BME280;5409;42.620;23.316;2022-08-03T07:08:08;92449.22;;;23.01;91.05
10716;BME280;5409;42.620;23.316;2022-08-03T07:10:41;92450.00;;;22.96;89.29
10716;BME280;5409;42.620;23.316;2022-08-03T07:13:08;92436.50;;;23.16;88.80
10716;BME280;5409;42.620;23.316;2022-08-03T07:15:35;92452.84;;;23.31;87.98
10716;BME280;5409;42.620;23.316;2022-08-03T07:18:02;92453.56;;;23.37;87.17
10716;BME280;5409;42.620;23.316;2022-08-03T07:20:29;92452.94;;;23.55;88.20
10716;BME280;5409;42.620;23.316;2022-08-03T07:22:56;92462.91;;;23.74;87.84
10716;BME280;5409;42.620;23.316;2022-08-03T07:25:24;92464.44;;;23.75;83.81
10716;BME280;5409;42.620;23.316;2022-08-03T07:27:51;92458.59;;;23.79;84.18
10716;BME280;5409;42.620;23.316;2022-08-03T07:30:18;92465.31;;;23.59;80.72
10716;BME280;5409;42.620;23.316;2022-08-03T07:32:44;92468.88;;;23.60;83.23
10716;BME280;5409;42.620;23.316;2022-08-03T07:35:11;92460.13;;;23.74;84.92
10716;BME280;5409;42.620;23.316;2022-08-03T07:37:38;92461.78;;;23.94;82.54
10716;BME280;5409;42.620;23.316;2022-08-03T07:40:05;92466.25;;;24.02;77.49
10716;BME280;5409;42.620;23.316;2022-08-03T07:42:33;92468.06;;;23.94;77.51
10716;BME280;5409;42.620;23.316;2022-08-03T07:45:00;92459.97;;;23.96;76.60
10716;BME280;5409;42.620;23.316;2022-08-03T07:47:28;92471.34;;;23.98;75.23
10716;BME280;5409;42.620;23.316;2022-08-03T07:49:56;92468.69;;;24.35;71.41
10716;BME280;5409;42.620;23.316;2022-08-03T07:52:23;92463.34;;;24.37;72.22
10716;BME280;5409;42.620;23.316;2022-08-03T07:55:07;92465.88;;;24.64;75.15
10716;BME280;5409;42.620;23.316;2022-08-03T07:57:36;92475.59;;;24.58;76.38
10716;BME280;5409;42.620;23.316;2022-08-03T08:00:05;92477.56;;;24.81;72.06
10716;BME280;5409;42.620;23.316;2022-08-03T08:02:33;92478.31;;;24.63;73.17
10716;BME280;5409;42.620;23.316;2022-08-03T08:04:59;92477.88;;;24.78;72.82
10716;BME280;5409;42.620;23.316;2022-08-03T08:07:26;92475.31;;;24.80;71.50
10716;BME280;5409;42.620;23.316;2022-08-03T08:09:53;92479.13;;;24.58;73.51
10716;BME280;5409;42.620;23.316;2022-08-03T08:12:20;92482.91;;;24.79;66.40
10716;BME280;5409;42.620;23.316;2022-08-03T08:14:48;92477.34;;;25.22;64.15
10716;BME280;5409;42.620;23.316;2022-08-03T08:17:14;92487.91;;;25.47;65.39
10716;BME280;5409;42.620;23.316;2022-08-03T08:19:41;92477.56;;;25.42;66.42
10716;BME280;5409;42.620;23.316;2022-08-03T08:22:08;92479.81;;;25.25;67.07
10716;BME280;5409;42.620;23.316;2022-08-03T08:24:34;92478.25;;;25.79;66.51
10716;BME280;5409;42.620;23.316;2022-08-03T08:27:01;92482.72;;;25.69;69.43
10716;BME280;5409;42.620;23.316;2022-08-03T08:29:28;92481.69;;;25.54;66.63
10716;BME280;5409;42.620;23.316;2022-08-03T08:31:56;92488.81;;;25.37;67.21
10716;BME280;5409;42.620;23.316;2022-08-03T08:34:22;92493.63;;;26.04;63.50
10716;BME280;5409;42.620;23.316;2022-08-03T08:36:49;92487.91;;;26.41;61.51
10716;BME280;5409;42.620;23.316;2022-08-03T08:39:16;92485.59;;;26.58;63.42
10716;BME280;5409;42.620;23.316;2022-08-03T08:41:42;92478.81;;;26.67;63.50
10716;BME280;5409;42.620;23.316;2022-08-03T08:44:09;92482.72;;;26.76;59.45
10716;BME280;5409;42.620;23.316;2022-08-03T08:46:37;92485.53;;;26.32;59.98
10716;BME280;5409;42.620;23.316;2022-08-03T08:49:07;92480.63;;;26.38;59.55
10716;BME280;5409;42.620;23.316;2022-08-03T08:51:34;92482.69;;;26.64;60.82
10716;BME280;5409;42.620;23.316;2022-08-03T08:54:06;92482.50;;;26.74;61.70
10716;BME280;5409;42.620;23.316;2022-08-03T08:56:34;92480.44;;;27.14;57.26
10716;BME280;5409;42.620;23.316;2022-08-03T08:59:03;92478.56;;;27.42;56.84
10716;BME280;5409;42.620;23.316;2022-08-03T09:01:30;92471.72;;;27.77;55.25
10716;BME280;5409;42.620;23.316;2022-08-03T09:03:57;92469.72;;;28.05;53.13
10716;BME280;5409;42.620;23.316;2022-08-03T09:06:25;92478.84;;;27.98;54.36
10716;BME280;5409;42.620;23.316;2022-08-03T09:08:52;92475.94;;;27.90;47.93
10716;BME280;5409;42.620;23.316;2022-08-03T09:11:22;92477.25;;;27.89;51.37
10716;BME280;5409;42.620;23.316;2022-08-03T09:13:49;92471.97;;;28.40;50.68
10716;BME280;5409;42.620;23.316;2022-08-03T09:16:17;92469.50;;;28.85;47.19
10716;BME280;5409;42.620;23.316;2022-08-03T09:18:46;92473.72;;;28.78;49.19
10716;BME280;5409;42.620;23.316;2022-08-03T09:21:17;92478.34;;;28.07;45.68
10716;BME280;5409;42.620;23.316;2022-08-03T09:23:46;92467.06;;;28.20;45.86
10716;BME280;5409;42.620;23.316;2022-08-03T09:26:19;92469.00;;;28.73;49.05
10716;BME280;5409;42.620;23.316;2022-08-03T09:28:53;92468.78;;;28.92;48.46
10716;BME280;5409;42.620;23.316;2022-08-03T09:31:28;92469.31;;;28.62;47.64
10716;BME280;5409;42.620;23.316;2022-08-03T09:33:55;92475.97;;;28.80;48.50
10716;BME280;5409;42.620;23.316;2022-08-03T09:36:39;92477.34;;;29.14;45.03
10716;BME280;5409;42.620;23.316;2022-08-03T09:39:09;92469.16;;;29.59;41.96
10716;BME280;5409;42.620;23.316;2022-08-03T09:41:37;92470.50;;;29.73;42.01
10716;BME280;5409;42.620;23.316;2022-08-03T09:44:04;92473.47;;;30.33;39.99
10716;BME280;5409;42.620;23.316;2022-08-03T09:46:31;92473.69;;;30.72;40.70
10716;BME280;5409;42.620;23.316;2022-08-03T09:49:12;92471.81;;;30.82;38.27
10716;BME280;5409;42.620;23.316;2022-08-03T09:51:39;92474.22;;;31.00;37.70
10716;BME280;5409;42.620;23.316;2022-08-03T09:54:07;92467.84;;;30.92;39.02
10716;BME280;5409;42.620;23.316;2022-08-03T09:56:39;92469.34;;;30.78;41.17
10716;BME280;5409;42.620;23.316;2022-08-03T09:59:05;92464.66;;;30.66;39.71
10716;BME280;5409;42.620;23.316;2022-08-03T10:01:33;92463.72;;;30.71;40.45
10716;BME280;5409;42.620;23.316;2022-08-03T10:04:00;92464.28;;;30.92;37.89
10716;BME280;5409;42.620;23.316;2022-08-03T10:06:27;92459.78;;;31.58;39.29
10716;BME280;5409;42.620;23.316;2022-08-03T10:09:04;92453.31;;;32.19;35.98
10716;BME280;5409;42.620;23.316;2022-08-03T10:11:33;92460.53;;;31.58;37.44
10716;BME280;5409;42.620;23.316;2022-08-03T10:14:02;92449.97;;;31.74;36.26
10716;BME280;5409;42.620;23.316;2022-08-03T10:16:33;92453.81;;;31.47;37.18
10716;BME280;5409;42.620;23.316;2022-08-03T10:18:59;92442.69;;;30.42;37.36
10716;BME280;5409;42.620;23.316;2022-08-03T10:21:29;92451.81;;;29.40;42.61
10716;BME280;5409;42.620;23.316;2022-08-03T10:23:58;92448.22;;;28.97;44.39
10716;BME280;5409;42.620;23.316;2022-08-03T10:26:30;92450.13;;;29.02;43.62
10716;BME280;5409;42.620;23.316;2022-08-03T10:28:59;92439.47;;;28.80;48.50
10716;BME280;5409;42.620;23.316;2022-08-03T10:31:33;92450.28;;;29.31;43.49
10716;BME280;5409;42.620;23.316;2022-08-03T10:34:01;92437.88;;;29.70;39.21
10716;BME280;5409;42.620;23.316;2022-08-03T10:36:30;92444.34;;;30.08;40.62
10716;BME280;5409;42.620;23.316;2022-08-03T10:38:59;92439.88;;;30.20;39.16
10716;BME280;5409;42.620;23.316;2022-08-03T10:41:31;92442.72;;;30.34;40.43
10716;BME280;5409;42.620;23.316;2022-08-03T10:44:03;92437.94;;;31.27;43.81
10716;BME280;5409;42.620;23.316;2022-08-03T10:46:32;92438.13;;;31.21;37.69
10716;BME280;5409;42.620;23.316;2022-08-03T10:48:59;92444.91;;;31.03;40.69
10716;BME280;5409;42.620;23.316;2022-08-03T10:51:27;92447.19;;;31.59;38.61
10716;BME280;5409;42.620;23.316;2022-08-03T10:53:56;92439.19;;;32.19;32.97
10716;BME280;5409;42.620;23.316;2022-08-03T10:56:39;92445.31;;;32.81;34.64
10716;BME280;5409;42.620;23.316;2022-08-03T11:03:06;92432.16;;;33.52;32.71
10716;BME280;5409;42.620;23.316;2022-08-03T11:05:36;92428.28;;;33.91;31.72
10716;BME280;5409;42.620;23.316;2022-08-03T11:08:25;92433.50;;;33.85;31.77
10716;BME280;5409;42.620;23.316;2022-08-03T11:10:55;92437.03;;;33.00;33.07
10716;BME280;5409;42.620;23.316;2022-08-03T11:13:24;92434.44;;;32.29;33.54
10716;BME280;5409;42.620;23.316;2022-08-03T11:15:54;92437.25;;;31.65;34.35
10716;BME280;5409;42.620;23.316;2022-08-03T11:18:23;92435.91;;;30.97;39.98
10716;BME280;5409;42.620;23.316;2022-08-03T11:20:53;92426.19;;;30.24;39.83
10716;BME280;5409;42.620;23.316;2022-08-03T11:23:39;92418.44;;;29.79;42.13
10716;BME280;5409;42.620;23.316;2022-08-03T11:26:14;92420.63;;;29.58;42.05
10716;BME280;5409;42.620;23.316;2022-08-03T11:28:43;92413.53;;;29.22;47.96
10716;BME280;5409;42.620;23.316;2022-08-03T11:31:44;92415.28;;;29.40;49.02
10716;BME280;5409;42.620;23.316;2022-08-03T11:34:14;92415.84;;;29.38;46.36
10716;BME280;5409;42.620;23.316;2022-08-03T11:37:19;92408.41;;;29.06;43.12
10716;BME280;5409;42.620;23.316;2022-08-03T11:39:53;92412.72;;;28.51;41.29
10716;BME280;5409;42.620;23.316;2022-08-03T11:42:43;92412.19;;;28.52;42.68
10716;BME280;5409;42.620;23.316;2022-08-03T11:45:12;92399.66;;;29.67;41.65
10716;BME280;5409;42.620;23.316;2022-08-03T11:47:40;92404.59;;;30.48;36.14
10716;BME280;5409;42.620;23.316;2022-08-03T11:50:09;92398.16;;;31.08;34.21
10716;BME280;5409;42.620;23.316;2022-08-03T11:52:39;92406.44;;;31.52;34.40
10716;BME280;5409;42.620;23.316;2022-08-03T11:55:14;92403.19;;;31.71;32.10
10716;BME280;5409;42.620;23.316;2022-08-03T11:57:41;92397.66;;;31.80;37.05
10716;BME280;5409;42.620;23.316;2022-08-03T12:00:20;92398.94;;;32.43;35.50
10716;BME280;5409;42.620;23.316;2022-08-03T12:02:55;92398.50;;;31.66;33.75
10716;BME280;5409;42.620;23.316;2022-08-03T12:05:36;92399.66;;;31.01;36.59
10716;BME280;5409;42.620;23.316;2022-08-03T12:08:04;92398.72;;;31.60;38.52
10716;BME280;5409;42.620;23.316;2022-08-03T12:10:31;92398.06;;;32.09;35.73
10716;BME280;5409;42.620;23.316;2022-08-03T12:12:59;92394.81;;;30.79;34.37
10716;BME280;5409;42.620;23.316;2022-08-03T12:15:27;92395.63;;;30.50;37.44
10716;BME280;5409;42.620;23.316;2022-08-03T12:17:54;92384.50;;;29.92;36.49
10716;BME280;5409;42.620;23.316;2022-08-03T12:20:24;92385.06;;;29.18;41.87
10716;BME280;5409;42.620;23.316;2022-08-03T12:22:52;92389.00;;;28.52;46.50
10716;BME280;5409;42.620;23.316;2022-08-03T12:25:21;92389.16;;;28.82;42.83
10716;BME280;5409;42.620;23.316;2022-08-03T12:27:48;92378.31;;;29.79;40.50
10716;BME280;5409;42.620;23.316;2022-08-03T12:30:15;92388.97;;;30.92;41.14
10716;BME280;5409;42.620;23.316;2022-08-03T12:32:42;92389.75;;;31.47;37.82
10716;BME280;5409;42.620;23.316;2022-08-03T12:35:10;92397.78;;;31.11;35.94
10716;BME280;5409;42.620;23.316;2022-08-03T12:37:47;92389.75;;;30.85;36.75
10716;BME280;5409;42.620;23.316;2022-08-03T12:40:23;92389.22;;;30.72;37.36
10716;BME280;5409;42.620;23.316;2022-08-03T12:42:50;92393.94;;;30.54;40.98
10716;BME280;5409;42.620;23.316;2022-08-03T12:45:17;92391.50;;;30.36;38.77
10716;BME280;5409;42.620;23.316;2022-08-03T12:47:52;92382.50;;;30.15;41.96
10716;BME280;5409;42.620;23.316;2022-08-03T12:50:23;92387.28;;;29.70;37.21
10716;BME280;5409;42.620;23.316;2022-08-03T12:52:51;92386.97;;;29.23;44.17
10716;BME280;5409;42.620;23.316;2022-08-03T12:55:20;92391.84;;;28.87;42.15
10716;BME280;5409;42.620;23.316;2022-08-03T12:57:47;92376.38;;;28.66;44.42
10716;BME280;5409;42.620;23.316;2022-08-03T13:00:16;92373.66;;;28.53;41.70
10716;BME280;5409;42.620;23.316;2022-08-03T13:02:43;92373.72;;;29.38;44.38
10716;BME280;5409;42.620;23.316;2022-08-03T13:05:11;92375.19;;;30.57;40.36
10716;BME280;5409;42.620;23.316;2022-08-03T13:07:41;92371.69;;;31.03;38.96
10716;BME280;5409;42.620;23.316;2022-08-03T13:10:10;92367.47;;;30.72;39.75